sensor_id;sensor_type;location;lat;lon;timestamp;P1;durP1;ratioP1;P2;durP2;ratioP2
3941;SDS011;1985;48.592;8.850;2022-10-28T00:01:09;15.02;;;3.90;;
3941;SDS011;1985;48.592;8.850;2022-10-28T00:03:40;12.10;;;3.33;;
3941;SDS011;1985;48.592;8.850;2022-10-28T00:06:10;17.77;;;3.63;;
3941;SDS011;1985;48.592;8.850;2022-10-28T00:08:41;11.98;;;3.42;;
3941;SDS011;1985;48.592;8.850;2022-10-28T00:11:08;11.05;;;2.85;;
3941;SDS011;1985;48.592;8.850;2022-10-28T00:13:45;10.98;;;3.05;;
3941;SDS011;1985;48.592;8.850;2022-10-28T00:16:12;11.55;;;2.65;;
3941;SDS011;1985;48.592;8.850;2022-10-28T00:18:42;12.68;;;3.10;;
3941;SDS011;1985;48.592;8.850;2022-10-28T00:21:10;11.15;;;3.33;;
3941;SDS011;1985;48.592;8.850;2022-10-28T00:23:38;15.17;;;3.80;;
3941;SDS011;1985;48.592;8.850;2022-10-28T00:26:09;13.27;;;3.72;;
3941;SDS011;1985;48.592;8.850;2022-10-28T00:28:43;15.65;;;4.15;;
3941;SDS011;1985;48.592;8.850;2022-10-28T00:31:11;12.85;;;3.28;;
3941;SDS011;1985;48.592;8.850;2022-10-28T00:33:38;13.52;;;3.85;;
3941;SDS011;1985;48.592;8.850;2022-10-28T00:36:11;17.87;;;3.77;;
3941;SDS011;1985;48.592;8.850;2022-10-28T00:38:41;12.95;;;3.10;;
3941;SDS011;1985;48.592;8.850;2022-10-28T00:41:09;11.90;;;2.88;;
3941;SDS011;1985;48.592;8.850;2022-10-28T00:43:48;16.27;;;3.50;;
3941;SDS011;1985;48.592;8.850;2022-10-28T00:46:36;12.07;;;3.00;;
3941;SDS011;1985;48.592;8.850;2022-10-28T00:49:14;12.10;;;3.58;;
3941;SDS011;1985;48.592;8.850;2022-10-28T00:51:45;11.50;;;3.22;;
3941;SDS011;1985;48.592;8.850;2022-10-28T00:54:14;11.10;;;3.40;;
3941;SDS011;1985;48.592;8.850;2022-10-28T00:56:42;11.57;;;3.57;;
3941;SDS011;1985;48.592;8.850;2022-10-28T00:59:12;15.00;;;3.60;;
3941;SDS011;1985;48.592;8.850;2022-10-28T01:01:43;10.80;;;2.95;;
3941;SDS011;1985;48.592;8.850;2022-10-28T01:04:10;15.82;;;3.97;;
3941;SDS011;1985;48.592;8.850;2022-10-28T01:06:37;13.75;;;3.13;;
3941;SDS011;1985;48.592;8.850;2022-10-28T01:09:03;12.48;;;3.67;;
3941;SDS011;1985;48.592;8.850;2022-10-28T01:17:05;13.93;;;3.60;;
3941;SDS011;1985;48.592;8.850;2022-10-28T01:25:48;14.18;;;3.40;;
3941;SDS011;1985;48.592;8.850;2022-10-28T01:47:27;13.63;;;3.55;;
3941;SDS011;1985;48.592;8.850;2022-10-28T01:50:19;11.25;;;2.53;;
3941;SDS011;1985;48.592;8.850;2022-10-28T01:52:46;10.48;;;2.97;;
3941;SDS011;1985;48.592;8.850;2022-10-28T01:55:14;14.48;;;4.03;;
3941;SDS011;1985;48.592;8.850;2022-10-28T01:57:45;13.00;;;3.30;;
3941;SDS011;1985;48.592;8.850;2022-10-28T02:00:14;17.15;;;3.40;;
3941;SDS011;1985;48.592;8.850;2022-10-28T02:02:40;13.50;;;3.37;;
3941;SDS011;1985;48.592;8.850;2022-10-28T02:08:11;17.30;;;3.53;;
3941;SDS011;1985;48.592;8.850;2022-10-28T02:19:06;10.90;;;2.90;;
3941;SDS011;1985;48.592;8.850;2022-10-28T02:26:46;11.10;;;3.30;;
3941;SDS011;1985;48.592;8.850;2022-10-28T02:29:19;14.90;;;4.00;;
3941;SDS011;1985;48.592;8.850;2022-10-28T02:31:54;12.82;;;3.80;;
3941;SDS011;1985;48.592;8.850;2022-10-28T02:34:31;13.20;;;3.80;;
3941;SDS011;1985;48.592;8.850;2022-10-28T02:37:02;13.15;;;3.50;;
3941;SDS011;1985;48.592;8.850;2022-10-28T02:39:37;14.85;;;3.90;;
3941;SDS011;1985;48.592;8.850;2022-10-28T02:42:06;13.48;;;3.80;;
3941;SDS011;1985;48.592;8.850;2022-10-28T02:44:41;18.52;;;3.90;;
3941;SDS011;1985;48.592;8.850;2022-10-28T02:47:13;12.52;;;3.72;;
3941;SDS011;1985;48.592;8.850;2022-10-28T02:49:43;11.32;;;3.38;;
3941;SDS011;1985;48.592;8.850;2022-10-28T02:52:15;15.00;;;4.00;;
3941;SDS011;1985;48.592;8.850;2022-10-28T02:54:53;14.88;;;3.40;;
3941;SDS011;1985;48.592;8.850;2022-10-28T02:57:22;10.32;;;2.97;;
3941;SDS011;1985;48.592;8.850;2022-10-28T02:59:56;12.43;;;3.38;;
3941;SDS011;1985;48.592;8.850;2022-10-28T03:02:24;13.23;;;3.85;;
3941;SDS011;1985;48.592;8.850;2022-10-28T03:04:50;18.15;;;3.70;;
3941;SDS011;1985;48.592;8.850;2022-10-28T03:07:16;13.43;;;3.80;;
3941;SDS011;1985;48.592;8.850;2022-10-28T03:09:42;11.83;;;3.60;;
3941;SDS011;1985;48.592;8.850;2022-10-28T03:12:07;14.57;;;3.47;;
3941;SDS011;1985;48.592;8.850;2022-10-28T03:14:33;13.17;;;3.40;;
3941;SDS011;1985;48.592;8.850;2022-10-28T03:16:59;14.48;;;3.90;;
3941;SDS011;1985;48.592;8.850;2022-10-28T03:19:24;14.00;;;4.10;;
3941;SDS011;1985;48.592;8.850;2022-10-28T03:21:50;12.13;;;3.37;;
3941;SDS011;1985;48.592;8.850;2022-10-28T03:24:15;12.90;;;3.00;;
3941;SDS011;1985;48.592;8.850;2022-10-28T03:26:41;12.97;;;3.70;;
3941;SDS011;1985;48.592;8.850;2022-10-28T03:29:07;12.47;;;3.40;;
3941;SDS011;1985;48.592;8.850;2022-10-28T03:31:32;16.20;;;4.00;;
3941;SDS011;1985;48.592;8.850;2022-10-28T03:33:58;15.77;;;3.70;;
3941;SDS011;1985;48.592;8.850;2022-10-28T03:36:24;14.30;;;4.50;;
3941;SDS011;1985;48.592;8.850;2022-10-28T03:38:49;18.40;;;4.50;;
3941;SDS011;1985;48.592;8.850;2022-10-28T03:41:15;14.83;;;4.00;;
3941;SDS011;1985;48.592;8.850;2022-10-28T03:43:41;13.45;;;4.03;;
3941;SDS011;1985;48.592;8.850;2022-10-28T03:46:06;11.90;;;3.93;;
3941;SDS011;1985;48.592;8.850;2022-10-28T03:48:32;12.90;;;3.90;;
3941;SDS011;1985;48.592;8.850;2022-10-28T03:50:58;18.75;;;4.38;;
3941;SDS011;1985;48.592;8.850;2022-10-28T03:53:23;15.87;;;3.33;;
3941;SDS011;1985;48.592;8.850;2022-10-28T03:55:56;15.48;;;3.92;;
3941;SDS011;1985;48.592;8.850;2022-10-28T03:58:22;14.07;;;4.00;;
3941;SDS011;1985;48.592;8.850;2022-10-28T04:00:49;12.00;;;3.75;;
3941;SDS011;1985;48.592;8.850;2022-10-28T04:03:16;15.02;;;3.88;;
3941;SDS011;1985;48.592;8.850;2022-10-28T04:05:42;14.65;;;4.22;;
3941;SDS011;1985;48.592;8.850;2022-10-28T04:08:08;14.18;;;3.90;;
3941;SDS011;1985;48.592;8.850;2022-10-28T04:10:34;16.00;;;3.97;;
3941;SDS011;1985;48.592;8.850;2022-10-28T04:13:00;13.88;;;3.70;;
3941;SDS011;1985;48.592;8.850;2022-10-28T04:15:27;12.05;;;3.70;;
3941;SDS011;1985;48.592;8.850;2022-10-28T04:17:53;13.52;;;3.42;;
3941;SDS011;1985;48.592;8.850;2022-10-28T04:20:19;14.40;;;4.13;;
3941;SDS011;1985;48.592;8.850;2022-10-28T04:22:44;17.20;;;3.60;;
3941;SDS011;1985;48.592;8.850;2022-10-28T04:25:10;14.37;;;3.50;;
3941;SDS011;1985;48.592;8.850;2022-10-28T04:27:36;13.35;;;4.20;;
3941;SDS011;1985;48.592;8.850;2022-10-28T04:30:02;13.40;;;3.63;;
3941;SDS011;1985;48.592;8.850;2022-10-28T04:32:28;12.57;;;4.10;;
3941;SDS011;1985;48.592;8.850;2022-10-28T04:34:54;10.93;;;3.10;;
3941;SDS011;1985;48.592;8.850;2022-10-28T04:37:19;12.43;;;3.83;;
3941;SDS011;1985;48.592;8.850;2022-10-28T04:39:45;13.85;;;4.28;;
3941;SDS011;1985;48.592;8.850;2022-10-28T04:42:10;12.25;;;2.97;;
3941;SDS011;1985;48.592;8.850;2022-10-28T04:44:36;13.33;;;3.40;;
3941;SDS011;1985;48.592;8.850;2022-10-28T04:47:02;11.95;;;3.22;;
3941;SDS011;1985;48.592;8.850;2022-10-28T04:49:27;18.92;;;3.67;;
3941;SDS011;1985;48.592;8.850;2022-10-28T04:51:53;13.20;;;3.70;;
3941;SDS011;1985;48.592;8.850;2022-10-28T04:54:18;17.63;;;4.38;;
3941;SDS011;1985;48.592;8.850;2022-10-28T04:56:44;15.55;;;4.57;;
3941;SDS011;1985;48.592;8.850;2022-10-28T04:59:10;13.30;;;4.00;;
3941;SDS011;1985;48.592;8.850;2022-10-28T05:01:35;15.35;;;3.97;;
3941;SDS011;1985;48.592;8.850;2022-10-28T05:04:01;11.53;;;3.70;;
3941;SDS011;1985;48.592;8.850;2022-10-28T05:06:27;11.57;;;3.00;;
3941;SDS011;1985;48.592;8.850;2022-10-28T05:08:53;12.13;;;3.40;;
3941;SDS011;1985;48.592;8.850;2022-10-28T05:11:18;12.52;;;3.10;;
3941;SDS011;1985;48.592;8.850;2022-10-28T05:13:44;11.90;;;3.27;;
3941;SDS011;1985;48.592;8.850;2022-10-28T05:16:10;18.20;;;4.00;;
3941;SDS011;1985;48.592;8.850;2022-10-28T05:18:35;16.30;;;3.42;;
3941;SDS011;1985;48.592;8.850;2022-10-28T05:21:01;25.40;;;4.10;;
3941;SDS011;1985;48.592;8.850;2022-10-28T05:23:27;13.40;;;4.60;;
3941;SDS011;1985;48.592;8.850;2022-10-28T05:25:52;13.88;;;4.75;;
3941;SDS011;1985;48.592;8.850;2022-10-28T05:28:18;16.90;;;4.80;;
3941;SDS011;1985;48.592;8.850;2022-10-28T05:30:44;18.20;;;6.40;;
3941;SDS011;1985;48.592;8.850;2022-10-28T05:33:09;24.77;;;6.20;;
3941;SDS011;1985;48.592;8.850;2022-10-28T05:35:36;17.27;;;5.50;;
3941;SDS011;1985;48.592;8.850;2022-10-28T05:38:02;20.42;;;5.60;;
3941;SDS011;1985;48.592;8.850;2022-10-28T05:40:28;19.50;;;5.47;;
3941;SDS011;1985;48.592;8.850;2022-10-28T05:42:56;15.60;;;3.85;;
3941;SDS011;1985;48.592;8.850;2022-10-28T05:45:22;12.52;;;3.53;;
3941;SDS011;1985;48.592;8.850;2022-10-28T05:47:48;15.00;;;4.32;;
3941;SDS011;1985;48.592;8.850;2022-10-28T05:50:14;18.15;;;5.57;;
3941;SDS011;1985;48.592;8.850;2022-10-28T05:52:59;21.05;;;4.93;;
3941;SDS011;1985;48.592;8.850;2022-10-28T05:55:26;13.95;;;4.22;;
3941;SDS011;1985;48.592;8.850;2022-10-28T05:57:53;14.10;;;4.07;;
3941;SDS011;1985;48.592;8.850;2022-10-28T06:00:23;19.10;;;4.22;;
3941;SDS011;1985;48.592;8.850;2022-10-28T06:02:49;12.82;;;3.75;;
3941;SDS011;1985;48.592;8.850;2022-10-28T06:05:15;20.57;;;4.40;;
3941;SDS011;1985;48.592;8.850;2022-10-28T06:07:41;16.05;;;4.00;;
3941;SDS011;1985;48.592;8.850;2022-10-28T06:10:07;14.40;;;3.83;;
3941;SDS011;1985;48.592;8.850;2022-10-28T06:12:34;20.50;;;4.00;;
3941;SDS011;1985;48.592;8.850;2022-10-28T06:14:59;12.38;;;3.60;;
3941;SDS011;1985;48.592;8.850;2022-10-28T06:17:25;13.85;;;4.10;;
3941;SDS011;1985;48.592;8.850;2022-10-28T06:19:51;22.65;;;5.47;;
3941;SDS011;1985;48.592;8.850;2022-10-28T06:22:17;18.43;;;4.60;;
3941;SDS011;1985;48.592;8.850;2022-10-28T06:24:42;16.30;;;4.10;;
3941;SDS011;1985;48.592;8.850;2022-10-28T06:27:08;19.13;;;4.72;;
3941;SDS011;1985;48.592;8.850;2022-10-28T06:29:34;21.77;;;5.23;;
3941;SDS011;1985;48.592;8.850;2022-10-28T06:32:00;21.50;;;5.22;;
3941;SDS011;1985;48.592;8.850;2022-10-28T06:34:26;25.40;;;4.88;;
3941;SDS011;1985;48.592;8.850;2022-10-28T06:36:51;19.15;;;4.60;;
3941;SDS011;1985;48.592;8.850;2022-10-28T06:39:17;16.67;;;4.90;;
3941;SDS011;1985;48.592;8.850;2022-10-28T06:41:43;16.80;;;4.72;;
3941;SDS011;1985;48.592;8.850;2022-10-28T06:44:08;15.70;;;3.67;;
3941;SDS011;1985;48.592;8.850;2022-10-28T06:46:34;23.53;;;4.20;;
3941;SDS011;1985;48.592;8.850;2022-10-28T06:49:00;20.95;;;5.10;;
3941;SDS011;1985;48.592;8.850;2022-10-28T06:51:27;19.25;;;4.32;;
3941;SDS011;1985;48.592;8.850;2022-10-28T06:53:54;14.77;;;3.90;;
3941;SDS011;1985;48.592;8.850;2022-10-28T06:56:19;17.87;;;4.40;;
3941;SDS011;1985;48.592;8.850;2022-10-28T06:58:49;15.20;;;4.03;;
3941;SDS011;1985;48.592;8.850;2022-10-28T07:01:15;15.35;;;4.40;;
3941;SDS011;1985;48.592;8.850;2022-10-28T07:03:41;18.58;;;5.22;;
3941;SDS011;1985;48.592;8.850;2022-10-28T07:06:07;15.93;;;3.77;;
3941;SDS011;1985;48.592;8.850;2022-10-28T07:08:32;21.45;;;4.50;;
3941;SDS011;1985;48.592;8.850;2022-10-28T07:10:58;17.30;;;4.50;;
3941;SDS011;1985;48.592;8.850;2022-10-28T07:13:24;15.25;;;3.65;;
3941;SDS011;1985;48.592;8.850;2022-10-28T07:15:54;12.77;;;3.60;;
3941;SDS011;1985;48.592;8.850;2022-10-28T07:18:22;15.07;;;4.00;;
3941;SDS011;1985;48.592;8.850;2022-10-28T07:20:48;12.95;;;3.58;;
3941;SDS011;1985;48.592;8.850;2022-10-28T07:23:14;15.60;;;4.17;;
3941;SDS011;1985;48.592;8.850;2022-10-28T07:25:40;12.70;;;3.75;;
3941;SDS011;1985;48.592;8.850;2022-10-28T07:28:06;16.95;;;4.50;;
3941;SDS011;1985;48.592;8.850;2022-10-28T07:30:32;20.30;;;4.35;;
3941;SDS011;1985;48.592;8.850;2022-10-28T07:32:58;14.25;;;3.60;;
3941;SDS011;1985;48.592;8.850;2022-10-28T07:35:25;18.92;;;3.72;;
3941;SDS011;1985;48.592;8.850;2022-10-28T07:37:52;15.93;;;3.53;;
3941;SDS011;1985;48.592;8.850;2022-10-28T07:40:21;16.38;;;3.40;;
3941;SDS011;1985;48.592;8.850;2022-10-28T07:42:47;15.23;;;4.07;;
3941;SDS011;1985;48.592;8.850;2022-10-28T07:45:13;13.17;;;3.10;;
3941;SDS011;1985;48.592;8.850;2022-10-28T07:47:39;13.77;;;3.50;;
3941;SDS011;1985;48.592;8.850;2022-10-28T07:50:05;14.38;;;4.45;;
3941;SDS011;1985;48.592;8.850;2022-10-28T07:52:32;23.77;;;9.37;;
3941;SDS011;1985;48.592;8.850;2022-10-28T07:54:58;28.55;;;8.63;;
3941;SDS011;1985;48.592;8.850;2022-10-28T07:57:24;19.63;;;5.13;;
3941;SDS011;1985;48.592;8.850;2022-10-28T07:59:50;26.13;;;8.80;;
3941;SDS011;1985;48.592;8.850;2022-10-28T08:02:17;23.80;;;8.80;;
3941;SDS011;1985;48.592;8.850;2022-10-28T08:04:44;21.40;;;7.33;;
3941;SDS011;1985;48.592;8.850;2022-10-28T08:07:11;26.10;;;6.43;;
3941;SDS011;1985;48.592;8.850;2022-10-28T08:09:37;14.85;;;5.03;;
3941;SDS011;1985;48.592;8.850;2022-10-28T08:12:03;15.57;;;5.72;;
3941;SDS011;1985;48.592;8.850;2022-10-28T08:14:29;20.90;;;5.38;;
3941;SDS011;1985;48.592;8.850;2022-10-28T08:16:55;15.48;;;5.18;;
3941;SDS011;1985;48.592;8.850;2022-10-28T08:19:21;18.58;;;4.63;;
3941;SDS011;1985;48.592;8.850;2022-10-28T08:21:46;20.07;;;4.80;;
3941;SDS011;1985;48.592;8.850;2022-10-28T08:24:12;17.40;;;4.83;;
3941;SDS011;1985;48.592;8.850;2022-10-28T08:26:38;15.75;;;4.88;;
3941;SDS011;1985;48.592;8.850;2022-10-28T08:29:03;21.07;;;4.20;;
3941;SDS011;1985;48.592;8.850;2022-10-28T08:31:30;20.90;;;4.50;;
3941;SDS011;1985;48.592;8.850;2022-10-28T08:33:57;14.90;;;3.88;;
3941;SDS011;1985;48.592;8.850;2022-10-28T08:36:23;15.75;;;4.05;;
3941;SDS011;1985;48.592;8.850;2022-10-28T08:38:49;11.82;;;3.47;;
3941;SDS011;1985;48.592;8.850;2022-10-28T08:49:35;24.52;;;4.65;;
3941;SDS011;1985;48.592;8.850;2022-10-28T08:55:58;24.60;;;4.85;;
3941;SDS011;1985;48.592;8.850;2022-10-28T09:00:41;17.98;;;4.10;;
3941;SDS011;1985;48.592;8.850;2022-10-28T09:05:35;22.43;;;4.00;;
3941;SDS011;1985;48.592;8.850;2022-10-28T09:08:08;22.52;;;4.53;;
3941;SDS011;1985;48.592;8.850;2022-10-28T09:11:07;23.80;;;3.63;;
3941;SDS011;1985;48.592;8.850;2022-10-28T09:19:03;17.38;;;4.18;;
3941;SDS011;1985;48.592;8.850;2022-10-28T09:21:50;16.65;;;3.30;;
3941;SDS011;1985;48.592;8.850;2022-10-28T09:24:36;14.30;;;3.30;;
3941;SDS011;1985;48.592;8.850;2022-10-28T09:27:19;18.70;;;4.07;;
3941;SDS011;1985;48.592;8.850;2022-10-28T09:30:05;14.77;;;3.58;;
3941;SDS011;1985;48.592;8.850;2022-10-28T09:32:51;12.10;;;3.88;;
3941;SDS011;1985;48.592;8.850;2022-10-28T09:35:24;16.83;;;3.17;;
3941;SDS011;1985;48.592;8.850;2022-10-28T09:37:56;12.00;;;3.03;;
3941;SDS011;1985;48.592;8.850;2022-10-28T09:40:28;14.77;;;3.33;;
3941;SDS011;1985;48.592;8.850;2022-10-28T09:45:44;15.15;;;3.20;;
3941;SDS011;1985;48.592;8.850;2022-10-28T09:50:43;13.98;;;3.13;;
3941;SDS011;1985;48.592;8.850;2022-10-28T09:53:16;11.93;;;3.00;;
3941;SDS011;1985;48.592;8.850;2022-10-28T09:55:56;13.57;;;3.53;;
3941;SDS011;1985;48.592;8.850;2022-10-28T09:58:21;13.82;;;2.90;;
3941;SDS011;1985;48.592;8.850;2022-10-28T10:00:47;14.55;;;3.10;;
3941;SDS011;1985;48.592;8.850;2022-10-28T10:03:14;17.35;;;4.20;;
3941;SDS011;1985;48.592;8.850;2022-10-28T10:05:42;17.45;;;3.38;;
3941;SDS011;1985;48.592;8.850;2022-10-28T10:08:13;14.20;;;3.67;;
3941;SDS011;1985;48.592;8.850;2022-10-28T10:10:56;14.23;;;3.40;;
3941;SDS011;1985;48.592;8.850;2022-10-28T10:13:27;12.98;;;3.30;;
3941;SDS011;1985;48.592;8.850;2022-10-28T10:16:05;11.98;;;3.30;;
3941;SDS011;1985;48.592;8.850;2022-10-28T10:18:44;13.85;;;3.50;;
3941;SDS011;1985;48.592;8.850;2022-10-28T10:21:14;11.90;;;3.40;;
3941;SDS011;1985;48.592;8.850;2022-10-28T10:23:40;15.68;;;2.83;;
3941;SDS011;1985;48.592;8.850;2022-10-28T10:26:13;12.80;;;3.05;;
3941;SDS011;1985;48.592;8.850;2022-10-28T10:28:44;12.85;;;3.08;;
3941;SDS011;1985;48.592;8.850;2022-10-28T10:31:21;13.38;;;3.30;;
3941;SDS011;1985;48.592;8.850;2022-10-28T10:33:50;12.80;;;3.33;;
3941;SDS011;1985;48.592;8.850;2022-10-28T10:36:18;17.75;;;3.75;;
3941;SDS011;1985;48.592;8.850;2022-10-28T10:38:51;14.38;;;3.65;;
3941;SDS011;1985;48.592;8.850;2022-10-28T10:49:25;18.10;;;3.10;;
3941;SDS011;1985;48.592;8.850;2022-10-28T10:51:52;11.52;;;3.20;;
3941;SDS011;1985;48.592;8.850;2022-10-28T10:54:23;15.95;;;2.72;;
3941;SDS011;1985;48.592;8.850;2022-10-28T10:56:51;12.23;;;3.00;;
3941;SDS011;1985;48.592;8.850;2022-10-28T11:01:54;16.10;;;2.90;;
3941;SDS011;1985;48.592;8.850;2022-10-28T11:04:22;15.10;;;2.80;;
3941;SDS011;1985;48.592;8.850;2022-10-28T11:06:51;13.02;;;2.60;;
3941;SDS011;1985;48.592;8.850;2022-10-28T11:11:59;13.40;;;3.00;;
3941;SDS011;1985;48.592;8.850;2022-10-28T11:14:37;15.85;;;2.97;;
3941;SDS011;1985;48.592;8.850;2022-10-28T11:17:08;11.65;;;2.40;;
3941;SDS011;1985;48.592;8.850;2022-10-28T11:19:53;10.30;;;2.30;;
3941;SDS011;1985;48.592;8.850;2022-10-28T11:30:12;11.57;;;2.47;;
3941;SDS011;1985;48.592;8.850;2022-10-28T11:32:45;11.00;;;2.20;;
3941;SDS011;1985;48.592;8.850;2022-10-28T11:43:54;10.53;;;2.70;;
3941;SDS011;1985;48.592;8.850;2022-10-28T11:46:44;13.00;;;3.05;;
3941;SDS011;1985;48.592;8.850;2022-10-28T11:58:06;20.45;;;3.63;;
3941;SDS011;1985;48.592;8.850;2022-10-28T12:04:01;15.18;;;2.70;;
3941;SDS011;1985;48.592;8.850;2022-10-28T12:15:02;15.05;;;2.50;;
3941;SDS011;1985;48.592;8.850;2022-10-28T12:18:14;11.32;;;2.30;;
3941;SDS011;1985;48.592;8.850;2022-10-28T12:23:21;12.93;;;3.00;;
3941;SDS011;1985;48.592;8.850;2022-10-28T12:25:50;13.70;;;2.90;;
3941;SDS011;1985;48.592;8.850;2022-10-28T12:30:51;11.00;;;2.20;;
3941;SDS011;1985;48.592;8.850;2022-10-28T12:35:51;14.23;;;2.20;;
3941;SDS011;1985;48.592;8.850;2022-10-28T12:38:39;10.70;;;2.30;;
3941;SDS011;1985;48.592;8.850;2022-10-28T12:41:13;15.32;;;2.78;;
3941;SDS011;1985;48.592;8.850;2022-10-28T12:43:54;10.90;;;2.20;;
3941;SDS011;1985;48.592;8.850;2022-10-28T12:52:08;13.88;;;2.33;;
3941;SDS011;1985;48.592;8.850;2022-10-28T12:54:56;13.32;;;2.50;;
3941;SDS011;1985;48.592;8.850;2022-10-28T12:57:26;12.30;;;1.83;;
3941;SDS011;1985;48.592;8.850;2022-10-28T12:59:58;13.83;;;2.20;;
3941;SDS011;1985;48.592;8.850;2022-10-28T13:02:42;11.10;;;2.20;;
3941;SDS011;1985;48.592;8.850;2022-10-28T13:05:22;13.68;;;2.53;;
3941;SDS011;1985;48.592;8.850;2022-10-28T13:10:49;10.55;;;2.45;;
3941;SDS011;1985;48.592;8.850;2022-10-28T13:13:34;9.83;;;1.63;;
3941;SDS011;1985;48.592;8.850;2022-10-28T13:24:12;9.85;;;2.00;;
3941;SDS011;1985;48.592;8.850;2022-10-28T13:26:44;12.40;;;2.50;;
3941;SDS011;1985;48.592;8.850;2022-10-28T13:31:50;11.30;;;2.10;;
3941;SDS011;1985;48.592;8.850;2022-10-28T13:34:17;17.45;;;2.90;;
3941;SDS011;1985;48.592;8.850;2022-10-28T13:36:57;11.65;;;1.70;;
3941;SDS011;1985;48.592;8.850;2022-10-28T13:47:27;14.88;;;2.22;;
3941;SDS011;1985;48.592;8.850;2022-10-28T13:57:49;11.60;;;1.95;;
3941;SDS011;1985;48.592;8.850;2022-10-28T14:02:45;12.30;;;2.43;;
3941;SDS011;1985;48.592;8.850;2022-10-28T14:05:16;16.02;;;2.15;;
3941;SDS011;1985;48.592;8.850;2022-10-28T14:07:53;19.08;;;2.78;;
3941;SDS011;1985;48.592;8.850;2022-10-28T14:10:22;10.55;;;1.80;;
3941;SDS011;1985;48.592;8.850;2022-10-28T14:12:50;10.43;;;1.80;;
3941;SDS011;1985;48.592;8.850;2022-10-28T14:15:23;12.20;;;2.33;;
3941;SDS011;1985;48.592;8.850;2022-10-28T14:17:57;13.65;;;2.13;;
3941;SDS011;1985;48.592;8.850;2022-10-28T14:26:07;10.05;;;2.42;;
3941;SDS011;1985;48.592;8.850;2022-10-28T14:36:12;13.77;;;2.22;;
3941;SDS011;1985;48.592;8.850;2022-10-28T14:52:45;16.00;;;2.53;;
3941;SDS011;1985;48.592;8.850;2022-10-28T14:55:23;12.57;;;2.30;;
3941;SDS011;1985;48.592;8.850;2022-10-28T14:57:50;14.82;;;2.70;;
3941;SDS011;1985;48.592;8.850;2022-10-28T15:00:17;10.88;;;1.95;;
3941;SDS011;1985;48.592;8.850;2022-10-28T15:02:45;10.35;;;2.00;;
3941;SDS011;1985;48.592;8.850;2022-10-28T15:05:21;11.30;;;1.90;;
3941;SDS011;1985;48.592;8.850;2022-10-28T15:07:50;12.73;;;2.30;;
3941;SDS011;1985;48.592;8.850;2022-10-28T15:10:26;11.98;;;2.30;;
3941;SDS011;1985;48.592;8.850;2022-10-28T15:12:54;12.23;;;2.10;;
3941;SDS011;1985;48.592;8.850;2022-10-28T15:15:26;11.50;;;2.00;;
3941;SDS011;1985;48.592;8.850;2022-10-28T15:17:57;11.20;;;2.00;;
3941;SDS011;1985;48.592;8.850;2022-10-28T15:22:53;16.05;;;2.38;;
3941;SDS011;1985;48.592;8.850;2022-10-28T15:25:36;12.77;;;2.30;;
3941;SDS011;1985;48.592;8.850;2022-10-28T15:28:01;11.32;;;2.22;;
3941;SDS011;1985;48.592;8.850;2022-10-28T15:30:27;13.10;;;2.30;;
3941;SDS011;1985;48.592;8.850;2022-10-28T15:32:54;17.85;;;3.20;;
3941;SDS011;1985;48.592;8.850;2022-10-28T15:35:39;11.88;;;2.30;;
3941;SDS011;1985;48.592;8.850;2022-10-28T15:38:40;15.65;;;2.30;;
3941;SDS011;1985;48.592;8.850;2022-10-28T15:41:09;10.43;;;2.13;;
3941;SDS011;1985;48.592;8.850;2022-10-28T15:44:00;12.77;;;2.50;;
3941;SDS011;1985;48.592;8.850;2022-10-28T15:46:27;14.57;;;2.80;;
3941;SDS011;1985;48.592;8.850;2022-10-28T15:48:59;13.85;;;2.72;;
3941;SDS011;1985;48.592;8.850;2022-10-28T15:51:26;12.98;;;2.60;;
3941;SDS011;1985;48.592;8.850;2022-10-28T15:53:53;14.63;;;2.92;;
3941;SDS011;1985;48.592;8.850;2022-10-28T15:56:33;13.70;;;2.90;;
3941;SDS011;1985;48.592;8.850;2022-10-28T15:59:22;20.58;;;3.17;;
3941;SDS011;1985;48.592;8.850;2022-10-28T16:01:49;16.52;;;3.08;;
3941;SDS011;1985;48.592;8.850;2022-10-28T16:06:48;16.47;;;3.13;;
3941;SDS011;1985;48.592;8.850;2022-10-28T16:12:18;20.25;;;3.03;;
3941;SDS011;1985;48.592;8.850;2022-10-28T16:14:47;12.45;;;2.63;;
3941;SDS011;1985;48.592;8.850;2022-10-28T16:17:24;11.45;;;2.30;;
3941;SDS011;1985;48.592;8.850;2022-10-28T16:19:53;11.02;;;2.47;;
3941;SDS011;1985;48.592;8.850;2022-10-28T16:22:23;10.70;;;2.63;;
3941;SDS011;1985;48.592;8.850;2022-10-28T16:24:51;11.45;;;2.45;;
3941;SDS011;1985;48.592;8.850;2022-10-28T16:29:55;16.45;;;2.50;;
3941;SDS011;1985;48.592;8.850;2022-10-28T16:32:31;13.18;;;2.38;;
3941;SDS011;1985;48.592;8.850;2022-10-28T16:35:02;14.32;;;3.10;;
3941;SDS011;1985;48.592;8.850;2022-10-28T16:37:29;13.40;;;4.20;;
3941;SDS011;1985;48.592;8.850;2022-10-28T16:39:55;17.90;;;4.45;;
3941;SDS011;1985;48.592;8.850;2022-10-28T16:42:24;17.23;;;4.00;;
3941;SDS011;1985;48.592;8.850;2022-10-28T16:44:50;13.87;;;3.53;;
3941;SDS011;1985;48.592;8.850;2022-10-28T16:47:17;14.15;;;3.10;;
3941;SDS011;1985;48.592;8.850;2022-10-28T16:49:44;19.33;;;3.37;;
3941;SDS011;1985;48.592;8.850;2022-10-28T16:52:17;13.43;;;3.67;;
3941;SDS011;1985;48.592;8.850;2022-10-28T16:54:45;21.48;;;3.00;;
3941;SDS011;1985;48.592;8.850;2022-10-28T16:57:11;12.63;;;3.30;;
3941;SDS011;1985;48.592;8.850;2022-10-28T16:59:37;14.02;;;3.40;;
3941;SDS011;1985;48.592;8.850;2022-10-28T17:02:03;19.93;;;3.73;;
3941;SDS011;1985;48.592;8.850;2022-10-28T17:04:33;13.50;;;3.00;;
3941;SDS011;1985;48.592;8.850;2022-10-28T17:06:59;11.90;;;3.00;;
3941;SDS011;1985;48.592;8.850;2022-10-28T17:09:24;13.45;;;2.75;;
3941;SDS011;1985;48.592;8.850;2022-10-28T17:11:50;16.88;;;2.90;;
3941;SDS011;1985;48.592;8.850;2022-10-28T17:14:15;13.40;;;3.17;;
3941;SDS011;1985;48.592;8.850;2022-10-28T17:16:41;12.00;;;3.37;;
3941;SDS011;1985;48.592;8.850;2022-10-28T17:19:07;17.27;;;3.67;;
3941;SDS011;1985;48.592;8.850;2022-10-28T17:21:33;12.98;;;3.38;;
3941;SDS011;1985;48.592;8.850;2022-10-28T17:23:58;11.83;;;3.20;;
3941;SDS011;1985;48.592;8.850;2022-10-28T17:26:24;12.73;;;2.97;;
3941;SDS011;1985;48.592;8.850;2022-10-28T17:28:50;15.13;;;3.75;;
3941;SDS011;1985;48.592;8.850;2022-10-28T17:31:16;25.25;;;10.40;;
3941;SDS011;1985;48.592;8.850;2022-10-28T17:33:42;12.40;;;4.20;;
3941;SDS011;1985;48.592;8.850;2022-10-28T17:36:07;16.07;;;4.00;;
3941;SDS011;1985;48.592;8.850;2022-10-28T17:38:33;14.63;;;4.00;;
3941;SDS011;1985;48.592;8.850;2022-10-28T17:40:59;18.92;;;3.22;;
3941;SDS011;1985;48.592;8.850;2022-10-28T17:43:25;17.00;;;3.60;;
3941;SDS011;1985;48.592;8.850;2022-10-28T17:45:51;13.73;;;3.25;;
3941;SDS011;1985;48.592;8.850;2022-10-28T17:48:16;17.50;;;3.20;;
3941;SDS011;1985;48.592;8.850;2022-10-28T17:50:42;17.60;;;3.77;;
3941;SDS011;1985;48.592;8.850;2022-10-28T17:53:09;12.55;;;2.60;;
3941;SDS011;1985;48.592;8.850;2022-10-28T17:55:35;13.60;;;2.70;;
3941;SDS011;1985;48.592;8.850;2022-10-28T17:58:00;14.80;;;3.43;;
3941;SDS011;1985;48.592;8.850;2022-10-28T18:00:26;13.88;;;3.30;;
3941;SDS011;1985;48.592;8.850;2022-10-28T18:02:55;16.85;;;3.58;;
3941;SDS011;1985;48.592;8.850;2022-10-28T18:05:21;19.70;;;3.97;;
3941;SDS011;1985;48.592;8.850;2022-10-28T18:07:47;16.88;;;6.00;;
3941;SDS011;1985;48.592;8.850;2022-10-28T18:10:12;14.50;;;4.95;;
3941;SDS011;1985;48.592;8.850;2022-10-28T18:12:40;16.35;;;4.05;;
3941;SDS011;1985;48.592;8.850;2022-10-28T18:15:06;15.20;;;4.67;;
3941;SDS011;1985;48.592;8.850;2022-10-28T18:17:33;12.38;;;3.30;;
3941;SDS011;1985;48.592;8.850;2022-10-28T18:19:59;16.25;;;4.20;;
3941;SDS011;1985;48.592;8.850;2022-10-28T18:22:26;12.02;;;2.92;;
3941;SDS011;1985;48.592;8.850;2022-10-28T18:24:51;18.65;;;3.10;;
3941;SDS011;1985;48.592;8.850;2022-10-28T18:27:19;15.73;;;3.30;;
3941;SDS011;1985;48.592;8.850;2022-10-28T18:29:44;18.55;;;3.92;;
3941;SDS011;1985;48.592;8.850;2022-10-28T18:32:10;13.73;;;2.70;;
3941;SDS011;1985;48.592;8.850;2022-10-28T18:34:36;14.23;;;3.37;;
3941;SDS011;1985;48.592;8.850;2022-10-28T18:37:01;11.82;;;2.58;;
3941;SDS011;1985;48.592;8.850;2022-10-28T18:39:31;11.27;;;3.00;;
3941;SDS011;1985;48.592;8.850;2022-10-28T18:41:57;14.00;;;2.65;;